sensor_id;sensor_type;location;lat;lon;timestamp;pressure;altitude;pressure_sealevel;temperature;humidity
46506;BME280;32220;49.808;9.968;2023-04-01T00:00:18;97321.19;;;10.97;74.82
46506;BME280;32220;49.808;9.968;2023-04-01T00:02:47;97307.09;;;10.96;75.24
46506;BME280;32220;49.808;9.968;2023-04-01T00:05:14;97316.28;;;11.02;74.81
46506;BME280;32220;49.808;9.968;2023-04-01T00:07:43;97312.97;;;11.09;74.31
46506;BME280;32220;49.808;9.968;2023-04-01T00:10:11;97310.75;;;11.14;74.29
46506;BME280;32220;49.808;9.968;2023-04-01T00:12:40;97320.22;;;11.17;73.10
46506;BME280;32220;49.808;9.968;2023-04-01T00:15:11;97276.16;;;10.97;73.46
46506;BME280;32220;49.808;9.968;2023-04-01T00:17:40;97317.44;;;11.19;73.14
46506;BME280;32220;49.808;9.968;2023-04-01T00:20:08;97313.69;;;11.21;73.10
46506;BME280;32220;49.808;9.968;2023-04-01T00:22:36;97323.88;;;11.26;72.76
46506;BME280;32220;49.808;9.968;2023-04-01T00:25:04;97295.13;;;11.11;72.49
46506;BME280;32220;49.808;9.968;2023-04-01T00:27:32;97319.97;;;11.30;72.34
46506;BME280;32220;49.808;9.968;2023-04-01T00:30:00;97319.56;;;11.34;72.09
46506;BME280;32220;49.808;9.968;2023-04-01T00:32:28;97329.47;;;11.42;71.33
46506;BME280;32220;49.808;9.968;2023-04-01T00:34:58;97323.91;;;11.45;71.43
46506;BME280;32220;49.808;9.968;2023-04-01T00:37:26;97324.03;;;11.43;71.24
46506;BME280;32220;49.808;9.968;2023-04-01T00:39:54;97321.13;;;11.46;71.26
46506;BME280;32220;49.808;9.968;2023-04-01T00:42:22;97316.66;;;11.47;71.01
46506;BME280;32220;49.808;9.968;2023-04-01T00:44:51;97320.53;;;11.43;71.15
46506;BME280;32220;49.808;9.968;2023-04-01T00:47:19;97314.41;;;11.42;71.24
46506;BME280;32220;49.808;9.968;2023-04-01T00:49:50;97330.16;;;11.44;70.73
46506;BME280;32220;49.808;9.968;2023-04-01T00:52:22;97318.31;;;11.48;71.21
46506;BME280;32220;49.808;9.968;2023-04-01T00:54:55;97320.97;;;11.48;70.73
46506;BME280;32220;49.808;9.968;2023-04-01T00:57:30;97324.16;;;11.42;70.73
46506;BME280;32220;49.808;9.968;2023-04-01T00:59:58;97319.31;;;11.37;70.72
46506;BME280;32220;49.808;9.968;2023-04-01T01:02:26;97332.25;;;11.40;70.84
46506;BME280;32220;49.808;9.968;2023-04-01T01:04:54;97319.97;;;11.39;71.42
46506;BME280;32220;49.808;9.968;2023-04-01T01:07:29;97318.88;;;11.32;70.81
46506;BME280;32220;49.808;9.968;2023-04-01T01:10:03;97324.16;;;11.32;71.02
46506;BME280;32220;49.808;9.968;2023-04-01T01:12:39;97328.75;;;11.40;70.48
46506;BME280;32220;49.808;9.968;2023-04-01T01:15:13;97328.50;;;11.43;70.98
46506;BME280;32220;49.808;9.968;2023-04-01T01:17:49;97309.50;;;11.38;71.10
46506;BME280;32220;49.808;9.968;2023-04-01T01:24:07;97310.78;;;11.43;70.22
46506;BME280;32220;49.808;9.968;2023-04-01T01:26:54;97299.63;;;11.30;70.65
46506;BME280;32220;49.808;9.968;2023-04-01T01:32:49;97313.16;;;11.46;70.54
46506;BME280;32220;49.808;9.968;2023-04-01T01:35:28;97318.88;;;11.42;70.16
46506;BME280;32220;49.808;9.968;2023-04-01T01:38:01;97296.13;;;11.30;70.41
46506;BME280;32220;49.808;9.968;2023-04-01T01:40:31;97309.22;;;11.41;70.18
46506;BME280;32220;49.808;9.968;2023-04-01T01:43:03;97302.56;;;11.37;70.39
46506;BME280;32220;49.808;9.968;2023-04-01T01:45:33;97306.06;;;11.37;70.31
46506;BME280;32220;49.808;9.968;2023-04-01T01:48:02;97281.75;;;11.23;70.35
46506;BME280;32220;49.808;9.968;2023-04-01T01:50:33;97304.91;;;11.40;69.96
46506;BME280;32220;49.808;9.968;2023-04-01T01:53:04;97294.88;;;11.34;70.26
46506;BME280;32220;49.808;9.968;2023-04-01T01:55:33;97304.19;;;11.28;70.12
46506;BME280;32220;49.808;9.968;2023-04-01T01:58:07;97292.91;;;11.16;70.21
46506;BME280;32220;49.808;9.968;2023-04-01T02:00:39;97308.25;;;11.32;70.16
46506;BME280;32220;49.808;9.968;2023-04-01T02:03:08;97294.03;;;11.24;69.85
46506;BME280;32220;49.808;9.968;2023-04-01T02:05:39;97297.94;;;11.39;69.69
46506;BME280;32220;49.808;9.968;2023-04-01T02:08:12;97300.75;;;11.37;69.95
46506;BME280;32220;49.808;9.968;2023-04-01T02:10:44;97305.22;;;11.37;69.64
46506;BME280;32220;49.808;9.968;2023-04-01T02:13:18;97299.59;;;11.40;70.00
46506;BME280;32220;49.808;9.968;2023-04-01T02:15:48;97285.38;;;11.31;69.81
46506;BME280;32220;49.808;9.968;2023-04-01T02:18:18;97289.97;;;11.20;69.61
46506;BME280;32220;49.808;9.968;2023-04-01T02:20:49;97301.56;;;11.38;69.55
46506;BME280;32220;49.808;9.968;2023-04-01T02:23:17;97258.06;;;11.11;69.46
46506;BME280;32220;49.808;9.968;2023-04-01T02:25:45;97286.22;;;11.32;69.57
46506;BME280;32220;49.808;9.968;2023-04-01T02:28:14;97303.66;;;11.44;69.62
46506;BME280;32220;49.808;9.968;2023-04-01T02:30:47;97308.97;;;11.44;69.19
46506;BME280;32220;49.808;9.968;2023-04-01T02:33:15;97293.47;;;11.30;69.84
46506;BME280;32220;49.808;9.968;2023-04-01T02:35:44;97309.22;;;11.41;69.62
46506;BME280;32220;49.808;9.968;2023-04-01T02:38:13;97314.53;;;11.41;69.00
46506;BME280;32220;49.808;9.968;2023-04-01T02:40:44;97313.56;;;11.42;68.98
46506;BME280;32220;49.808;9.968;2023-04-01T02:43:12;97313.16;;;11.37;69.63
46506;BME280;32220;49.808;9.968;2023-04-01T02:45:39;97302.97;;;11.42;69.01
46506;BME280;32220;49.808;9.968;2023-04-01T02:48:07;97313.56;;;11.42;68.93
46506;BME280;32220;49.808;9.968;2023-04-01T02:50:35;97304.63;;;11.43;68.61
46506;BME280;32220;49.808;9.968;2023-04-01T02:53:03;97306.44;;;11.42;68.46
46506;BME280;32220;49.808;9.968;2023-04-01T02:55:34;97313.28;;;11.45;68.73
46506;BME280;32220;49.808;9.968;2023-04-01T02:58:01;97318.88;;;11.42;68.92
46506;BME280;32220;49.808;9.968;2023-04-01T03:00:29;97322.78;;;11.47;68.72
46506;BME280;32220;49.808;9.968;2023-04-01T03:02:57;97309.66;;;11.46;68.64
46506;BME280;32220;49.808;9.968;2023-04-01T03:05:25;97302.69;;;11.45;68.59
46506;BME280;32220;49.808;9.968;2023-04-01T03:07:53;97308.25;;;11.42;68.18
46506;BME280;32220;49.808;9.968;2023-04-01T03:10:21;97320.28;;;11.46;68.55
46506;BME280;32220;49.808;9.968;2023-04-01T03:12:50;97314.97;;;11.46;68.07
46506;BME280;32220;49.808;9.968;2023-04-01T03:15:17;97312.59;;;11.43;68.52
46506;BME280;32220;49.808;9.968;2023-04-01T03:17:45;97309.09;;;11.42;68.67
46506;BME280;32220;49.808;9.968;2023-04-01T03:20:14;97296.38;;;11.27;68.53
46506;BME280;32220;49.808;9.968;2023-04-01T03:22:41;97294.72;;;11.26;68.48
46506;BME280;32220;49.808;9.968;2023-04-01T03:25:09;97312.16;;;11.38;68.85
46506;BME280;32220;49.808;9.968;2023-04-01T03:27:38;97302.41;;;11.29;68.83
46506;BME280;32220;49.808;9.968;2023-04-01T03:30:10;97313.69;;;11.31;68.21
46506;BME280;32220;49.808;9.968;2023-04-01T03:32:46;97323.06;;;11.44;68.15
46506;BME280;32220;49.808;9.968;2023-04-01T03:35:14;97315.50;;;11.40;68.20
46506;BME280;32220;49.808;9.968;2023-04-01T03:37:41;97322.75;;;11.38;68.43
46506;BME280;32220;49.808;9.968;2023-04-01T03:40:10;97296.53;;;11.15;68.73
46506;BME280;32220;49.808;9.968;2023-04-01T03:42:38;97309.50;;;11.19;68.89
46506;BME280;32220;49.808;9.968;2023-04-01T03:45:08;97311.19;;;11.20;68.86
46506;BME280;32220;49.808;9.968;2023-04-01T03:47:36;97314.09;;;11.26;69.46
46506;BME280;32220;49.808;9.968;2023-04-01T03:50:04;97314.94;;;11.27;69.17
46506;BME280;32220;49.808;9.968;2023-04-01T03:52:33;97306.72;;;11.30;69.29
46506;BME280;32220;49.808;9.968;2023-04-01T03:55:00;97292.91;;;11.16;69.28
46506;BME280;32220;49.808;9.968;2023-04-01T03:57:30;97295.00;;;11.23;69.05
46506;BME280;32220;49.808;9.968;2023-04-01T04:00:05;97315.09;;;11.35;69.12
46506;BME280;32220;49.808;9.968;2023-04-01T04:02:41;97310.50;;;11.37;69.07
46506;BME280;32220;49.808;9.968;2023-04-01T04:05:10;97313.69;;;11.31;69.36
46506;BME280;32220;49.808;9.968;2023-04-01T04:07:39;97307.69;;;11.29;69.29
46506;BME280;32220;49.808;9.968;2023-04-01T04:10:08;97305.75;;;11.21;69.05
46506;BME280;32220;49.808;9.968;2023-04-01T04:12:36;97317.06;;;11.33;68.87
46506;BME280;32220;49.808;9.968;2023-04-01T04:15:05;97308.25;;;11.32;69.12
46506;BME280;32220;49.808;9.968;2023-04-01T04:17:34;97317.47;;;11.38;68.64
46506;BME280;32220;49.808;9.968;2023-04-01T04:20:04;97308.53;;;11.39;68.91
46506;BME280;32220;49.808;9.968;2023-04-01T04:22:31;97310.78;;;11.34;68.79
46506;BME280;32220;49.808;9.968;2023-04-01T04:24:59;97310.78;;;11.34;68.30
46506;BME280;32220;49.808;9.968;2023-04-01T04:27:28;97312.84;;;11.40;68.65
46506;BME280;32220;49.808;9.968;2023-04-01T04:30:11;97318.88;;;11.42;68.54
46506;BME280;32220;49.808;9.968;2023-04-01T04:32:39;97325.84;;;11.43;68.56
46506;BME280;32220;49.808;9.968;2023-04-01T04:35:10;97326.41;;;11.37;68.51
46506;BME280;32220;49.808;9.968;2023-04-01T04:37:37;97310.22;;;11.40;68.54
46506;BME280;32220;49.808;9.968;2023-04-01T04:40:07;97326.25;;;11.38;68.71
46506;BME280;32220;49.808;9.968;2023-04-01T04:42:34;97317.75;;;11.35;68.96
46506;BME280;32220;49.808;9.968;2023-04-01T04:45:09;97322.63;;;11.39;68.52
46506;BME280;32220;49.808;9.968;2023-04-01T04:47:42;97326.69;;;11.34;69.21
46506;BME280;32220;49.808;9.968;2023-04-01T04:50:13;97322.22;;;11.34;69.02
46506;BME280;32220;49.808;9.968;2023-04-01T04:52:41;97323.06;;;11.35;69.30
46506;BME280;32220;49.808;9.968;2023-04-01T04:55:08;97314.94;;;11.27;69.87
46506;BME280;32220;49.808;9.968;2023-04-01T04:57:36;97307.56;;;11.21;69.82
46506;BME280;32220;49.808;9.968;2023-04-01T05:00:05;97311.63;;;11.25;69.64
46506;BME280;32220;49.808;9.968;2023-04-01T05:02:45;97297.38;;;11.26;69.54
46506;BME280;32220;49.808;9.968;2023-04-01T05:05:15;97280.94;;;11.12;69.76
46506;BME280;32220;49.808;9.968;2023-04-01T05:07:42;97313.69;;;11.31;70.08
46506;BME280;32220;49.808;9.968;2023-04-01T05:10:10;97317.47;;;11.28;70.49
46506;BME280;32220;49.808;9.968;2023-04-01T05:12:37;97312.16;;;11.28;69.85
46506;BME280;32220;49.808;9.968;2023-04-01T05:15:08;97318.28;;;11.29;70.42
46506;BME280;32220;49.808;9.968;2023-04-01T05:17:37;97310.22;;;11.30;70.11
46506;BME280;32220;49.808;9.968;2023-04-01T05:20:06;97307.97;;;11.26;70.29
46506;BME280;32220;49.808;9.968;2023-04-01T05:22:35;97297.66;;;11.23;69.81
46506;BME280;32220;49.808;9.968;2023-04-01T05:25:03;97290.81;;;11.20;69.82
46506;BME280;32220;49.808;9.968;2023-04-01T05:27:31;97305.47;;;11.34;69.96
46506;BME280;32220;49.808;9.968;2023-04-01T05:29:59;97305.75;;;11.31;69.67
46506;BME280;32220;49.808;9.968;2023-04-01T05:32:47;97313.00;;;11.29;69.72
46506;BME280;32220;49.808;9.968;2023-04-01T05:35:15;97299.59;;;11.21;70.00
46506;BME280;32220;49.808;9.968;2023-04-01T05:37:44;97312.31;;;11.36;69.37
46506;BME280;32220;49.808;9.968;2023-04-01T05:40:12;97306.84;;;11.38;69.41
46506;BME280;32220;49.808;9.968;2023-04-01T05:42:39;97312.47;;;11.35;69.34
46506;BME280;32220;49.808;9.968;2023-04-01T05:45:09;97316.91;;;11.44;69.03
46506;BME280;32220;49.808;9.968;2023-04-01T05:47:56;97311.63;;;11.44;68.93
46506;BME280;32220;49.808;9.968;2023-04-01T05:50:24;97311.03;;;11.50;69.08
46506;BME280;32220;49.808;9.968;2023-04-01T05:52:53;97316.78;;;11.55;68.30
46506;BME280;32220;49.808;9.968;2023-04-01T05:55:22;97310.22;;;11.59;68.46
46506;BME280;32220;49.808;9.968;2023-04-01T05:57:51;97318.06;;;11.61;68.41
46506;BME280;32220;49.808;9.968;2023-04-01T06:00:18;97318.59;;;11.64;68.03
46506;BME280;32220;49.808;9.968;2023-04-01T06:02:47;97297.81;;;11.60;67.32
46506;BME280;32220;49.808;9.968;2023-04-01T06:05:18;97335.34;;;11.74;67.41
46506;BME280;32220;49.808;9.968;2023-04-01T06:07:46;97321.13;;;11.75;67.56
46506;BME280;32220;49.808;9.968;2023-04-01T06:10:18;97324.19;;;11.80;67.02
46506;BME280;32220;49.808;9.968;2023-04-01T06:12:58;97309.38;;;11.68;66.79
46506;BME280;32220;49.808;9.968;2023-04-01T06:15:36;97291.94;;;11.66;66.93
46506;BME280;32220;49.808;9.968;2023-04-01T06:24:26;97319.28;;;12.05;66.49
46506;BME280;32220;49.808;9.968;2023-04-01T06:27:06;97312.13;;;12.15;66.01
46506;BME280;32220;49.808;9.968;2023-04-01T06:29:50;97321.88;;;12.24;65.08
46506;BME280;32220;49.808;9.968;2023-04-01T06:32:38;97322.72;;;12.34;64.80
46506;BME280;32220;49.808;9.968;2023-04-01T06:35:26;97331.38;;;12.27;64.57
46506;BME280;32220;49.808;9.968;2023-04-01T06:41:23;97323.13;;;12.30;64.49
46506;BME280;32220;49.808;9.968;2023-04-01T06:43:59;97321.28;;;12.40;64.87
46506;BME280;32220;49.808;9.968;2023-04-01T06:46:57;97320.03;;;12.44;64.32
46506;BME280;32220;49.808;9.968;2023-04-01T06:49:50;97328.75;;;12.64;63.84
46506;BME280;32220;49.808;9.968;2023-04-01T06:52:47;97338.97;;;12.86;62.90
46506;BME280;32220;49.808;9.968;2023-04-01T06:55:52;97318.91;;;13.01;63.11
46506;BME280;32220;49.808;9.968;2023-04-01T06:58:40;97281.50;;;12.94;62.06
46506;BME280;32220;49.808;9.968;2023-04-01T07:01:14;97339.38;;;13.46;61.60
46506;BME280;32220;49.808;9.968;2023-04-01T07:03:47;97348.28;;;13.54;60.73
46506;BME280;32220;49.808;9.968;2023-04-01T07:06:24;97335.16;;;13.71;60.37
46506;BME280;32220;49.808;9.968;2023-04-01T07:08:59;97335.50;;;13.93;59.79
46506;BME280;32220;49.808;9.968;2023-04-01T07:11:45;97328.13;;;13.87;59.32
46506;BME280;32220;49.808;9.968;2023-04-01T07:14:42;97327.56;;;14.01;59.38
46506;BME280;32220;49.808;9.968;2023-04-01T07:17:16;97344.25;;;14.29;58.87
46506;BME280;32220;49.808;9.968;2023-04-01T07:19:47;97352.69;;;14.43;58.54
46506;BME280;32220;49.808;9.968;2023-04-01T07:22:26;97338.53;;;14.68;57.78
46506;BME280;32220;49.808;9.968;2023-04-01T07:25:16;97357.56;;;15.07;56.66
46506;BME280;32220;49.808;9.968;2023-04-01T07:27:52;97367.72;;;15.12;55.79
46506;BME280;32220;49.808;9.968;2023-04-01T07:30:21;97357.56;;;15.07;55.70
46506;BME280;32220;49.808;9.968;2023-04-01T07:32:54;97369.38;;;15.04;55.98
46506;BME280;32220;49.808;9.968;2023-04-01T07:35:29;97348.19;;;15.03;56.52
46506;BME280;32220;49.808;9.968;2023-04-01T07:38:11;97350.88;;;15.11;55.96
46506;BME280;32220;49.808;9.968;2023-04-01T07:40:48;97355.28;;;15.28;55.91
46506;BME280;32220;49.808;9.968;2023-04-01T07:43:34;97362.31;;;15.37;54.95
46506;BME280;32220;49.808;9.968;2023-04-01T07:46:38;97359.16;;;15.42;55.11
46506;BME280;32220;49.808;9.968;2023-04-01T07:49:13;97350.00;;;15.44;55.81
46506;BME280;32220;49.808;9.968;2023-04-01T07:51:50;97349.34;;;15.42;55.82
46506;BME280;32220;49.808;9.968;2023-04-01T07:54:26;97363.06;;;15.56;55.08
46506;BME280;32220;49.808;9.968;2023-04-01T07:56:59;97365.22;;;15.60;55.54
46506;BME280;32220;49.808;9.968;2023-04-01T07:59:58;97362.22;;;15.55;55.48
46506;BME280;32220;49.808;9.968;2023-04-01T08:02:51;97363.63;;;15.33;55.63
46506;BME280;32220;49.808;9.968;2023-04-01T08:05:27;97372.25;;;15.19;56.24
46506;BME280;32220;49.808;9.968;2023-04-01T08:08:03;97362.25;;;14.79;56.96
46506;BME280;32220;49.808;9.968;2023-04-01T08:11:25;97340.25;;;14.51;59.07
46506;BME280;32220;49.808;9.968;2023-04-01T08:14:19;97347.06;;;14.46;59.01
46506;BME280;32220;49.808;9.968;2023-04-01T08:17:22;97340.38;;;14.24;59.02
46506;BME280;32220;49.808;9.968;2023-04-01T08:20:03;97331.69;;;14.22;59.71
46506;BME280;32220;49.808;9.968;2023-04-01T08:22:41;97346.09;;;14.29;60.42
46506;BME280;32220;49.808;9.968;2023-04-01T08:25:21;97349.13;;;14.34;61.02
46506;BME280;32220;49.808;9.968;2023-04-01T08:27:53;97354.03;;;14.47;60.48
46506;BME280;32220;49.808;9.968;2023-04-01T08:30:25;97348.78;;;14.37;60.38
46506;BME280;32220;49.808;9.968;2023-04-01T08:32:56;97356.25;;;14.51;60.73
46506;BME280;32220;49.808;9.968;2023-04-01T08:35:30;97358.72;;;14.45;61.48
46506;BME280;32220;49.808;9.968;2023-04-01T08:38:10;97356.25;;;14.51;62.84
46506;BME280;32220;49.808;9.968;2023-04-01T08:41:01;97347.25;;;14.52;63.11
46506;BME280;32220;49.808;9.968;2023-04-01T08:44:29;97340.03;;;14.19;63.74
46506;BME280;32220;49.808;9.968;2023-04-01T08:47:09;97336.84;;;13.97;64.19
46506;BME280;32220;49.808;9.968;2023-04-01T08:50:05;97321.44;;;13.65;65.58
46506;BME280;32220;49.808;9.968;2023-04-01T08:52:52;97339.53;;;13.44;66.35
46506;BME280;32220;49.808;9.968;2023-04-01T08:55:43;97322.63;;;13.18;67.34
46506;BME280;32220;49.808;9.968;2023-04-01T08:58:52;97333.13;;;13.19;68.18
46506;BME280;32220;49.808;9.968;2023-04-01T09:01:40;97329.00;;;13.25;67.71
46506;BME280;32220;49.808;9.968;2023-04-01T09:04:42;97342.41;;;13.51;67.50
46506;BME280;32220;49.808;9.968;2023-04-01T09:07:28;97313.16;;;13.51;66.77
46506;BME280;32220;49.808;9.968;2023-04-01T09:16:30;97345.66;;;14.16;66.53
46506;BME280;32220;49.808;9.968;2023-04-01T09:19:16;97347.13;;;14.36;64.50
46506;BME280;32220;49.808;9.968;2023-04-01T09:22:19;97359.53;;;15.05;62.50
46506;BME280;32220;49.808;9.968;2023-04-01T09:25:15;97376.81;;;15.93;61.08
46506;BME280;32220;49.808;9.968;2023-04-01T09:27:56;97373.75;;;16.85;56.57
46506;BME280;32220;49.808;9.968;2023-04-01T09:31:01;97383.44;;;17.34;57.30
46506;BME280;32220;49.808;9.968;2023-04-01T09:33:55;97387.09;;;17.41;55.91
46506;BME280;32220;49.808;9.968;2023-04-01T09:36:47;97383.31;;;17.19;54.67
46506;BME280;32220;49.808;9.968;2023-04-01T09:39:34;97380.91;;;17.01;56.21
46506;BME280;32220;49.808;9.968;2023-04-01T09:42:15;97381.47;;;16.80;56.15
46506;BME280;32220;49.808;9.968;2023-04-01T09:45:05;97384.16;;;16.56;56.09
46506;BME280;32220;49.808;9.968;2023-04-01T09:47:57;97378.13;;;16.46;54.99
46506;BME280;32220;49.808;9.968;2023-04-01T09:50:35;97377.66;;;16.42;55.43
46506;BME280;32220;49.808;9.968;2023-04-01T09:53:17;97364.63;;;16.39;56.37
46506;BME280;32220;49.808;9.968;2023-04-01T09:59:30;97389.81;;;16.21;56.68
46506;BME280;32220;49.808;9.968;2023-04-01T10:02:59;97395.50;;;16.01;57.31
46506;BME280;32220;49.808;9.968;2023-04-01T10:06:06;97378.81;;;15.91;58.13
46506;BME280;32220;49.808;9.968;2023-04-01T10:15:08;97388.16;;;16.36;57.77
46506;BME280;32220;49.808;9.968;2023-04-01T10:18:01;97379.16;;;16.37;56.44
46506;BME280;32220;49.808;9.968;2023-04-01T10:21:02;97386.00;;;16.64;56.32
46506;BME280;32220;49.808;9.968;2023-04-01T10:24:00;97365.75;;;16.61;56.30
46506;BME280;32220;49.808;9.968;2023-04-01T10:30:44;97378.81;;;16.64;55.56
46506;BME280;32220;49.808;9.968;2023-04-01T10:33:38;97391.13;;;16.57;55.53
46506;BME280;32220;49.808;9.968;2023-04-01T10:36:47;97366.47;;;16.31;56.63
46506;BME280;32220;49.808;9.968;2023-04-01T10:39:42;97383.13;;;16.49;56.21
46506;BME280;32220;49.808;9.968;2023-04-01T10:43:06;97371.13;;;16.53;56.63
46506;BME280;32220;49.808;9.968;2023-04-01T10:46:21;97365.78;;;16.37;57.80
46506;BME280;32220;49.808;9.968;2023-04-01T10:59:12;97365.44;;;15.83;59.03
46506;BME280;32220;49.808;9.968;2023-04-01T11:02:32;97369.63;;;16.02;59.73
46506;BME280;32220;49.808;9.968;2023-04-01T11:06:04;97366.78;;;16.20;58.48
46506;BME280;32220;49.808;9.968;2023-04-01T11:11:59;97371.13;;;16.12;59.84
46506;BME280;32220;49.808;9.968;2023-04-01T11:18:02;97346.75;;;16.07;60.85
46506;BME280;32220;49.808;9.968;2023-04-01T11:20:52;97349.41;;;15.83;60.42
46506;BME280;32220;49.808;9.968;2023-04-01T11:23:37;97352.75;;;15.77;61.55
46506;BME280;32220;49.808;9.968;2023-04-01T11:26:22;97334.31;;;15.41;61.69
46506;BME280;32220;49.808;9.968;2023-04-01T11:29:36;97356.59;;;15.24;63.49
46506;BME280;32220;49.808;9.968;2023-04-01T11:32:28;97342.00;;;14.94;63.65
46506;BME280;32220;49.808;9.968;2023-04-01T11:35:19;97346.66;;;14.92;64.88
46506;BME280;32220;49.808;9.968;2023-04-01T11:37:57;97354.50;;;14.94;65.56
46506;BME280;32220;49.808;9.968;2023-04-01T11:40:52;97354.13;;;14.89;67.29
46506;BME280;32220;49.808;9.968;2023-04-01T11:44:19;97349.75;;;14.80;67.60
46506;BME280;32220;49.808;9.968;2023-04-01T11:50:19;97355.09;;;14.80;68.37
46506;BME280;32220;49.808;9.968;2023-04-01T11:53:09;97353.63;;;14.59;68.18
46506;BME280;32220;49.808;9.968;2023-04-01T11:55:47;97349.13;;;14.60;68.72
46506;BME280;32220;49.808;9.968;2023-04-01T11:58:31;97333.69;;;14.63;69.62
46506;BME280;32220;49.808;9.968;2023-04-01T12:01:20;97345.53;;;14.69;69.51
46506;BME280;32220;49.808;9.968;2023-04-01T12:06:55;97350.78;;;14.87;69.22
46506;BME280;32220;49.808;9.968;2023-04-01T12:09:34;97332.53;;;14.66;69.10
46506;BME280;32220;49.808;9.968;2023-04-01T12:12:14;97365.47;;;14.91;69.95
46506;BME280;32220;49.808;9.968;2023-04-01T12:14:54;97348.66;;;14.64;69.58
46506;BME280;32220;49.808;9.968;2023-04-01T12:17:32;97368.88;;;14.75;70.24
46506;BME280;32220;49.808;9.968;2023-04-01T12:23:20;97355.44;;;14.85;70.06
46506;BME280;32220;49.808;9.968;2023-04-01T12:29:02;97350.16;;;14.93;70.00
46506;BME280;32220;49.808;9.968;2023-04-01T12:31:40;97375.56;;;15.21;69.39
46506;BME280;32220;49.808;9.968;2023-04-01T12:34:36;97374.56;;;15.14;68.94
46506;BME280;32220;49.808;9.968;2023-04-01T12:37:12;97379.72;;;15.07;68.42
46506;BME280;32220;49.808;9.968;2023-04-01T12:40:06;97374.88;;;15.11;69.39
46506;BME280;32220;49.808;9.968;2023-04-01T12:42:51;97375.00;;;15.43;68.97
46506;BME280;32220;49.808;9.968;2023-04-01T12:45:35;97365.44;;;15.67;67.79
46506;BME280;32220;49.808;9.968;2023-04-01T12:48:38;97378.66;;;16.01;66.21
46506;BME280;32220;49.808;9.968;2023-04-01T12:54:21;97397.63;;;16.87;63.09
46506;BME280;32220;49.808;9.968;2023-04-01T12:57:05;97371.81;;;17.10;62.56
46506;BME280;32220;49.808;9.968;2023-04-01T12:59:58;97405.09;;;17.08;61.12
46506;BME280;32220;49.808;9.968;2023-04-01T13:02:44;97380.66;;;16.64;62.62
46506;BME280;32220;49.808;9.968;2023-04-01T13:05:32;97382.31;;;16.32;64.36
46506;BME280;32220;49.808;9.968;2023-04-01T13:08:14;97387.66;;;16.24;66.04
46506;BME280;32220;49.808;9.968;2023-04-01T13:10:56;97343.91;;;15.85;66.01
46506;BME280;32220;49.808;9.968;2023-04-01T13:14:11;97388.50;;;16.00;65.74
46506;BME280;32220;49.808;9.968;2023-04-01T13:16:45;97335.31;;;15.49;66.33
46506;BME280;32220;49.808;9.968;2023-04-01T13:19:21;97391.44;;;15.73;67.63
46506;BME280;32220;49.808;9.968;2023-04-01T13:21:57;97373.41;;;15.59;68.48
46506;BME280;32220;49.808;9.968;2023-04-01T13:24:40;97393.53;;;15.53;68.29
46506;BME280;32220;49.808;9.968;2023-04-01T13:27:16;97401.03;;;15.50;68.48
46506;BME280;32220;49.808;9.968;2023-04-01T13:30:02;97392.69;;;15.44;67.78
46506;BME280;32220;49.808;9.968;2023-04-01T13:32:42;97398.66;;;15.38;68.26
46506;BME280;32220;49.808;9.968;2023-04-01T13:35:26;97379.59;;;15.25;68.57
46506;BME280;32220;49.808;9.968;2023-04-01T13:41:18;97401.47;;;15.37;69.73
46506;BME280;32220;49.808;9.968;2023-04-01T13:43:52;97409.63;;;15.35;69.40
46506;BME280;32220;49.808;9.968;2023-04-01T13:46:43;97387.59;;;15.25;70.15
46506;BME280;32220;49.808;9.968;2023-04-01T13:50:20;97390.75;;;15.21;70.46
46506;BME280;32220;49.808;9.968;2023-04-01T13:53:05;97395.59;;;15.17;70.36
46506;BME280;32220;49.808;9.968;2023-04-01T13:56:04;97404.06;;;15.13;70.92
46506;BME280;32220;49.808;9.968;2023-04-01T13:58:47;97404.56;;;15.16;71.13
46506;BME280;32220;49.808;9.968;2023-04-01T14:01:20;97400.53;;;15.12;71.24
46506;BME280;32220;49.808;9.968;2023-04-01T14:04:10;97387.88;;;15.06;70.66
46506;BME280;32220;49.808;9.968;2023-04-01T14:06:52;97401.25;;;15.22;71.51
46506;BME280;32220;49.808;9.968;2023-04-01T14:12:30;97409.63;;;15.35;70.74
46506;BME280;32220;49.808;9.968;2023-04-01T14:18:09;97407.25;;;15.24;70.39
46506;BME280;32220;49.808;9.968;2023-04-01T14:20:48;97413.00;;;15.03;70.22
46506;BME280;32220;49.808;9.968;2023-04-01T14:23:42;97400.81;;;14.93;71.29
46506;BME280;32220;49.808;9.968;2023-04-01T14:29:24;97411.75;;;15.24;70.92
46506;BME280;32220;49.808;9.968;2023-04-01T14:32:06;97417.72;;;15.52;69.61
46506;BME280;32220;49.808;9.968;2023-04-01T14:34:55;97427.81;;;15.66;69.56
46506;BME280;32220;49.808;9.968;2023-04-01T14:37:43;97423.47;;;15.65;69.44
46506;BME280;32220;49.808;9.968;2023-04-01T14:40:26;97435.97;;;15.64;69.22
46506;BME280;32220;49.808;9.968;2023-04-01T14:43:06;97410.81;;;15.75;68.76
46506;BME280;32220;49.808;9.968;2023-04-01T14:45:46;97435.22;;;16.12;68.05
46506;BME280;32220;49.808;9.968;2023-04-01T14:48:25;97412.34;;;16.02;67.70
46506;BME280;32220;49.808;9.968;2023-04-01T14:51:03;97442.09;;;16.07;67.72
46506;BME280;32220;49.808;9.968;2023-04-01T14:53:40;97442.69;;;15.85;68.44
46506;BME280;32220;49.808;9.968;2023-04-01T14:56:11;97447.06;;;15.52;68.70
46506;BME280;32220;49.808;9.968;2023-04-01T14:58:43;97433.63;;;15.27;69.70
46506;BME280;32220;49.808;9.968;2023-04-01T15:01:32;97416.94;;;14.91;70.28
46506;BME280;32220;49.808;9.968;2023-04-01T15:04:25;97403.25;;;14.86;71.21
46506;BME280;32220;49.808;9.968;2023-04-01T15:07:05;97433.75;;;15.18;71.56
46506;BME280;32220;49.808;9.968;2023-04-01T15:09:43;97431.97;;;15.34;70.57
46506;BME280;32220;49.808;9.968;2023-04-01T15:12:25;97440.38;;;15.48;70.31
46506;BME280;32220;49.808;9.968;2023-04-01T15:15:16;97443.00;;;15.39;69.94
46506;BME280;32220;49.808;9.968;2023-04-01T15:18:06;97435.09;;;15.22;69.64
46506;BME280;32220;49.808;9.968;2023-04-01T15:20:55;97439.25;;;15.16;70.07
46506;BME280;32220;49.808;9.968;2023-04-01T15:23:34;97426.97;;;14.97;70.48